sensor_id;sensor_type;location;lat;lon;timestamp;P1;durP1;ratioP1;P2;durP2;ratioP2
28920;SDS011;16035;53.594;9.952;2024-01-07T00:00:42;1.60;;;1.20;;
28920;SDS011;16035;53.594;9.952;2024-01-07T00:02:42;3.20;;;1.00;;
28920;SDS011;16035;53.594;9.952;2024-01-07T00:04:42;2.97;;;1.67;;
28920;SDS011;16035;53.594;9.952;2024-01-07T00:06:43;2.20;;;1.43;;
28920;SDS011;16035;53.594;9.952;2024-01-07T00:08:43;3.43;;;1.77;;
28920;SDS011;16035;53.594;9.952;2024-01-07T00:10:44;6.37;;;1.40;;
28920;SDS011;16035;53.594;9.952;2024-01-07T00:12:44;3.57;;;1.30;;
28920;SDS011;16035;53.594;9.952;2024-01-07T00:14:44;2.90;;;1.27;;
28920;SDS011;16035;53.594;9.952;2024-01-07T00:16:45;4.27;;;2.30;;
28920;SDS011;16035;53.594;9.952;2024-01-07T00:18:45;3.55;;;2.55;;
28920;SDS011;16035;53.594;9.952;2024-01-07T00:20:45;3.40;;;2.00;;
28920;SDS011;16035;53.594;9.952;2024-01-07T00:22:46;2.27;;;0.97;;
28920;SDS011;16035;53.594;9.952;2024-01-07T00:24:46;2.50;;;1.10;;
28920;SDS011;16035;53.594;9.952;2024-01-07T00:26:46;1.23;;;1.13;;
28920;SDS011;16035;53.594;9.952;2024-01-07T00:28:47;2.47;;;1.20;;
28920;SDS011;16035;53.594;9.952;2024-01-07T00:30:48;3.40;;;1.10;;
28920;SDS011;16035;53.594;9.952;2024-01-07T00:32:48;2.97;;;1.08;;
28920;SDS011;16035;53.594;9.952;2024-01-07T00:34:51;3.35;;;1.40;;
28920;SDS011;16035;53.594;9.952;2024-01-07T00:36:51;2.80;;;1.47;;
28920;SDS011;16035;53.594;9.952;2024-01-07T00:38:51;2.53;;;1.37;;
28920;SDS011;16035;53.594;9.952;2024-01-07T00:40:52;2.33;;;1.67;;
28920;SDS011;16035;53.594;9.952;2024-01-07T00:42:52;3.38;;;1.38;;
28920;SDS011;16035;53.594;9.952;2024-01-07T00:44:52;2.77;;;1.37;;
28920;SDS011;16035;53.594;9.952;2024-01-07T00:46:53;2.83;;;1.00;;
28920;SDS011;16035;53.594;9.952;2024-01-07T00:48:53;1.53;;;1.10;;
28920;SDS011;16035;53.594;9.952;2024-01-07T00:50:53;2.60;;;1.27;;
28920;SDS011;16035;53.594;9.952;2024-01-07T00:52:55;5.28;;;1.60;;
28920;SDS011;16035;53.594;9.952;2024-01-07T00:54:55;3.60;;;1.43;;
28920;SDS011;16035;53.594;9.952;2024-01-07T00:56:55;2.87;;;1.27;;
28920;SDS011;16035;53.594;9.952;2024-01-07T00:58:56;1.73;;;1.10;;
28920;SDS011;16035;53.594;9.952;2024-01-07T01:00:56;3.87;;;1.77;;
28920;SDS011;16035;53.594;9.952;2024-01-07T01:02:56;3.57;;;1.13;;
28920;SDS011;16035;53.594;9.952;2024-01-07T01:04:58;2.35;;;1.30;;
28920;SDS011;16035;53.594;9.952;2024-01-07T01:06:58;2.23;;;1.10;;
28920;SDS011;16035;53.594;9.952;2024-01-07T01:08:59;4.37;;;1.40;;
28920;SDS011;16035;53.594;9.952;2024-01-07T01:10:59;4.10;;;1.37;;
28920;SDS011;16035;53.594;9.952;2024-01-07T01:12:59;4.20;;;1.53;;
28920;SDS011;16035;53.594;9.952;2024-01-07T01:15:00;2.87;;;1.27;;
28920;SDS011;16035;53.594;9.952;2024-01-07T01:17:00;4.53;;;1.50;;
28920;SDS011;16035;53.594;9.952;2024-01-07T01:19:00;3.83;;;1.37;;
28920;SDS011;16035;53.594;9.952;2024-01-07T01:21:00;4.13;;;1.43;;
28920;SDS011;16035;53.594;9.952;2024-01-07T01:23:01;1.40;;;0.83;;
28920;SDS011;16035;53.594;9.952;2024-01-07T01:25:01;2.03;;;1.20;;
28920;SDS011;16035;53.594;9.952;2024-01-07T01:27:03;2.67;;;1.33;;
28920;SDS011;16035;53.594;9.952;2024-01-07T01:29:03;1.63;;;0.83;;
28920;SDS011;16035;53.594;9.952;2024-01-07T01:31:04;2.43;;;1.07;;
28920;SDS011;16035;53.594;9.952;2024-01-07T01:33:05;1.30;;;0.73;;
28920;SDS011;16035;53.594;9.952;2024-01-07T01:35:06;2.53;;;1.20;;
28920;SDS011;16035;53.594;9.952;2024-01-07T01:37:07;3.40;;;1.40;;
28920;SDS011;16035;53.594;9.952;2024-01-07T01:39:09;2.40;;;1.50;;
28920;SDS011;16035;53.594;9.952;2024-01-07T01:41:09;2.53;;;1.03;;
28920;SDS011;16035;53.594;9.952;2024-01-07T01:43:09;1.70;;;0.93;;
28920;SDS011;16035;53.594;9.952;2024-01-07T01:45:10;3.00;;;1.20;;
28920;SDS011;16035;53.594;9.952;2024-01-07T01:47:10;2.07;;;1.27;;
28920;SDS011;16035;53.594;9.952;2024-01-07T01:49:11;4.90;;;1.25;;
28920;SDS011;16035;53.594;9.952;2024-01-07T01:51:12;4.05;;;1.17;;
28920;SDS011;16035;53.594;9.952;2024-01-07T01:53:13;1.57;;;0.83;;
28920;SDS011;16035;53.594;9.952;2024-01-07T01:55:13;1.52;;;1.00;;
28920;SDS011;16035;53.594;9.952;2024-01-07T01:57:15;4.10;;;1.30;;
28920;SDS011;16035;53.594;9.952;2024-01-07T01:59:19;1.95;;;1.33;;
28920;SDS011;16035;53.594;9.952;2024-01-07T02:01:21;2.22;;;1.27;;
28920;SDS011;16035;53.594;9.952;2024-01-07T02:03:23;5.50;;;1.20;;
28920;SDS011;16035;53.594;9.952;2024-01-07T02:05:24;1.58;;;1.00;;
28920;SDS011;16035;53.594;9.952;2024-01-07T02:07:25;2.03;;;1.10;;
28920;SDS011;16035;53.594;9.952;2024-01-07T02:09:28;3.67;;;1.08;;
28920;SDS011;16035;53.594;9.952;2024-01-07T02:11:28;4.93;;;1.43;;
28920;SDS011;16035;53.594;9.952;2024-01-07T02:13:28;1.33;;;0.70;;
28920;SDS011;16035;53.594;9.952;2024-01-07T02:15:29;2.00;;;1.20;;
28920;SDS011;16035;53.594;9.952;2024-01-07T02:17:30;3.25;;;1.30;;
28920;SDS011;16035;53.594;9.952;2024-01-07T02:19:31;5.47;;;1.25;;
28920;SDS011;16035;53.594;9.952;2024-01-07T02:21:31;2.87;;;1.17;;
28920;SDS011;16035;53.594;9.952;2024-01-07T02:23:31;4.07;;;1.03;;
28920;SDS011;16035;53.594;9.952;2024-01-07T02:25:37;1.83;;;0.73;;
28920;SDS011;16035;53.594;9.952;2024-01-07T02:27:38;4.15;;;1.30;;
28920;SDS011;16035;53.594;9.952;2024-01-07T02:29:38;1.60;;;1.03;;
28920;SDS011;16035;53.594;9.952;2024-01-07T02:31:38;2.63;;;1.20;;
28920;SDS011;16035;53.594;9.952;2024-01-07T02:33:39;3.60;;;1.10;;
28920;SDS011;16035;53.594;9.952;2024-01-07T02:35:39;1.73;;;0.70;;
28920;SDS011;16035;53.594;9.952;2024-01-07T02:37:40;3.33;;;0.60;;
28920;SDS011;16035;53.594;9.952;2024-01-07T02:39:40;2.13;;;1.13;;
28920;SDS011;16035;53.594;9.952;2024-01-07T02:41:40;2.03;;;0.97;;
28920;SDS011;16035;53.594;9.952;2024-01-07T02:43:40;2.83;;;1.00;;
28920;SDS011;16035;53.594;9.952;2024-01-07T02:45:41;3.90;;;1.10;;
28920;SDS011;16035;53.594;9.952;2024-01-07T02:47:41;1.93;;;1.20;;
28920;SDS011;16035;53.594;9.952;2024-01-07T02:49:41;4.13;;;1.00;;
28920;SDS011;16035;53.594;9.952;2024-01-07T02:51:42;1.17;;;0.60;;
28920;SDS011;16035;53.594;9.952;2024-01-07T02:53:45;3.42;;;1.20;;
28920;SDS011;16035;53.594;9.952;2024-01-07T02:55:45;5.60;;;1.07;;
28920;SDS011;16035;53.594;9.952;2024-01-07T02:57:46;3.53;;;1.43;;
28920;SDS011;16035;53.594;9.952;2024-01-07T02:59:46;1.57;;;1.10;;
28920;SDS011;16035;53.594;9.952;2024-01-07T03:01:46;2.90;;;1.20;;
28920;SDS011;16035;53.594;9.952;2024-01-07T03:03:47;3.20;;;1.10;;
28920;SDS011;16035;53.594;9.952;2024-01-07T03:05:47;3.33;;;1.20;;
28920;SDS011;16035;53.594;9.952;2024-01-07T03:07:48;4.35;;;0.95;;
28920;SDS011;16035;53.594;9.952;2024-01-07T03:09:49;1.43;;;1.00;;
28920;SDS011;16035;53.594;9.952;2024-01-07T03:11:49;1.13;;;0.80;;
28920;SDS011;16035;53.594;9.952;2024-01-07T03:13:49;3.63;;;1.30;;
28920;SDS011;16035;53.594;9.952;2024-01-07T03:15:50;1.27;;;1.03;;
28920;SDS011;16035;53.594;9.952;2024-01-07T03:17:50;2.37;;;1.20;;
28920;SDS011;16035;53.594;9.952;2024-01-07T03:19:50;3.67;;;1.10;;
28920;SDS011;16035;53.594;9.952;2024-01-07T03:21:51;2.17;;;0.97;;
28920;SDS011;16035;53.594;9.952;2024-01-07T03:23:51;2.57;;;1.43;;
28920;SDS011;16035;53.594;9.952;2024-01-07T03:25:52;1.90;;;0.90;;
28920;SDS011;16035;53.594;9.952;2024-01-07T03:27:52;2.50;;;1.47;;
28920;SDS011;16035;53.594;9.952;2024-01-07T03:29:52;1.23;;;0.77;;
28920;SDS011;16035;53.594;9.952;2024-01-07T03:31:53;2.67;;;1.00;;
28920;SDS011;16035;53.594;9.952;2024-01-07T03:33:53;2.70;;;1.10;;
28920;SDS011;16035;53.594;9.952;2024-01-07T03:35:54;6.40;;;0.93;;
28920;SDS011;16035;53.594;9.952;2024-01-07T03:37:54;0.87;;;0.70;;
28920;SDS011;16035;53.594;9.952;2024-01-07T03:39:54;1.37;;;0.83;;
28920;SDS011;16035;53.594;9.952;2024-01-07T03:41:55;2.10;;;1.03;;
28920;SDS011;16035;53.594;9.952;2024-01-07T03:43:55;2.78;;;0.77;;
28920;SDS011;16035;53.594;9.952;2024-01-07T03:45:56;4.73;;;1.10;;
28920;SDS011;16035;53.594;9.952;2024-01-07T03:47:57;2.42;;;1.02;;
28920;SDS011;16035;53.594;9.952;2024-01-07T03:49:57;2.10;;;0.80;;
28920;SDS011;16035;53.594;9.952;2024-01-07T03:51:58;2.63;;;1.10;;
28920;SDS011;16035;53.594;9.952;2024-01-07T03:53:58;1.53;;;1.00;;
28920;SDS011;16035;53.594;9.952;2024-01-07T03:55:58;3.20;;;0.90;;
28920;SDS011;16035;53.594;9.952;2024-01-07T03:57:59;3.20;;;1.60;;
28920;SDS011;16035;53.594;9.952;2024-01-07T03:59:59;2.23;;;1.07;;
28920;SDS011;16035;53.594;9.952;2024-01-07T04:01:59;2.20;;;0.90;;
28920;SDS011;16035;53.594;9.952;2024-01-07T04:04:00;1.70;;;1.00;;
28920;SDS011;16035;53.594;9.952;2024-01-07T04:06:00;2.40;;;1.23;;
28920;SDS011;16035;53.594;9.952;2024-01-07T04:08:01;2.20;;;0.87;;
28920;SDS011;16035;53.594;9.952;2024-01-07T04:10:02;2.63;;;1.30;;
28920;SDS011;16035;53.594;9.952;2024-01-07T04:12:02;4.50;;;1.27;;
28920;SDS011;16035;53.594;9.952;2024-01-07T04:14:03;1.80;;;1.13;;
28920;SDS011;16035;53.594;9.952;2024-01-07T04:16:03;1.50;;;0.80;;
28920;SDS011;16035;53.594;9.952;2024-01-07T04:18:04;2.37;;;0.90;;
28920;SDS011;16035;53.594;9.952;2024-01-07T04:20:07;3.37;;;0.90;;
28920;SDS011;16035;53.594;9.952;2024-01-07T04:22:08;1.58;;;0.85;;
28920;SDS011;16035;53.594;9.952;2024-01-07T04:24:08;2.77;;;0.73;;
28920;SDS011;16035;53.594;9.952;2024-01-07T04:26:09;0.93;;;0.67;;
28920;SDS011;16035;53.594;9.952;2024-01-07T04:28:09;5.53;;;1.13;;
28920;SDS011;16035;53.594;9.952;2024-01-07T04:30:10;2.70;;;1.20;;
28920;SDS011;16035;53.594;9.952;2024-01-07T04:32:10;1.27;;;0.83;;
28920;SDS011;16035;53.594;9.952;2024-01-07T04:34:11;1.77;;;0.60;;
28920;SDS011;16035;53.594;9.952;2024-01-07T04:36:11;0.37;;;0.37;;
28920;SDS011;16035;53.594;9.952;2024-01-07T04:38:11;1.83;;;0.90;;
28920;SDS011;16035;53.594;9.952;2024-01-07T04:40:12;6.30;;;1.10;;
28920;SDS011;16035;53.594;9.952;2024-01-07T04:42:12;1.67;;;0.70;;
28920;SDS011;16035;53.594;9.952;2024-01-07T04:44:13;1.52;;;0.70;;
28920;SDS011;16035;53.594;9.952;2024-01-07T04:46:13;1.43;;;0.53;;
28920;SDS011;16035;53.594;9.952;2024-01-07T04:48:14;3.37;;;0.70;;
28920;SDS011;16035;53.594;9.952;2024-01-07T04:50:14;4.27;;;0.57;;
28920;SDS011;16035;53.594;9.952;2024-01-07T04:52:15;2.13;;;0.83;;
28920;SDS011;16035;53.594;9.952;2024-01-07T04:54:15;0.60;;;0.37;;
28920;SDS011;16035;53.594;9.952;2024-01-07T04:56:15;1.70;;;0.87;;
28920;SDS011;16035;53.594;9.952;2024-01-07T04:58:16;1.90;;;1.03;;
28920;SDS011;16035;53.594;9.952;2024-01-07T05:00:16;1.00;;;0.47;;
28920;SDS011;16035;53.594;9.952;2024-01-07T05:02:16;1.30;;;0.70;;
28920;SDS011;16035;53.594;9.952;2024-01-07T05:04:17;3.53;;;0.80;;
28920;SDS011;16035;53.594;9.952;2024-01-07T05:06:17;2.43;;;0.57;;
28920;SDS011;16035;53.594;9.952;2024-01-07T05:08:17;2.23;;;0.60;;
28920;SDS011;16035;53.594;9.952;2024-01-07T05:10:18;4.33;;;0.80;;
28920;SDS011;16035;53.594;9.952;2024-01-07T05:12:18;1.70;;;0.60;;
28920;SDS011;16035;53.594;9.952;2024-01-07T05:14:18;1.77;;;0.80;;
28920;SDS011;16035;53.594;9.952;2024-01-07T05:16:19;4.27;;;0.90;;
28920;SDS011;16035;53.594;9.952;2024-01-07T05:18:23;0.55;;;0.55;;
28920;SDS011;16035;53.594;9.952;2024-01-07T05:20:24;4.00;;;0.80;;
28920;SDS011;16035;53.594;9.952;2024-01-07T05:22:24;5.40;;;0.97;;
28920;SDS011;16035;53.594;9.952;2024-01-07T05:24:24;1.50;;;0.70;;
28920;SDS011;16035;53.594;9.952;2024-01-07T05:26:25;2.10;;;0.80;;
28920;SDS011;16035;53.594;9.952;2024-01-07T05:28:25;1.93;;;0.73;;
28920;SDS011;16035;53.594;9.952;2024-01-07T05:30:26;1.20;;;0.50;;
28920;SDS011;16035;53.594;9.952;2024-01-07T05:32:26;3.87;;;0.93;;
28920;SDS011;16035;53.594;9.952;2024-01-07T05:34:27;1.23;;;0.90;;
28920;SDS011;16035;53.594;9.952;2024-01-07T05:36:28;4.82;;;0.90;;
28920;SDS011;16035;53.594;9.952;2024-01-07T05:38:28;2.57;;;1.10;;
28920;SDS011;16035;53.594;9.952;2024-01-07T05:40:28;2.33;;;0.50;;
28920;SDS011;16035;53.594;9.952;2024-01-07T05:42:28;3.47;;;0.60;;
28920;SDS011;16035;53.594;9.952;2024-01-07T05:44:29;5.60;;;0.80;;
28920;SDS011;16035;53.594;9.952;2024-01-07T05:46:29;1.87;;;1.23;;
28920;SDS011;16035;53.594;9.952;2024-01-07T05:48:29;2.17;;;0.87;;
28920;SDS011;16035;53.594;9.952;2024-01-07T05:50:40;2.05;;;0.80;;
28920;SDS011;16035;53.594;9.952;2024-01-07T05:52:40;2.90;;;0.90;;
28920;SDS011;16035;53.594;9.952;2024-01-07T05:54:42;1.52;;;0.85;;
28920;SDS011;16035;53.594;9.952;2024-01-07T05:56:42;1.77;;;0.67;;
28920;SDS011;16035;53.594;9.952;2024-01-07T05:58:43;3.90;;;0.82;;
28920;SDS011;16035;53.594;9.952;2024-01-07T06:00:43;1.97;;;0.80;;
28920;SDS011;16035;53.594;9.952;2024-01-07T06:02:44;1.53;;;0.70;;
28920;SDS011;16035;53.594;9.952;2024-01-07T06:04:44;1.53;;;0.70;;
28920;SDS011;16035;53.594;9.952;2024-01-07T06:06:44;5.40;;;0.90;;
28920;SDS011;16035;53.594;9.952;2024-01-07T06:08:44;2.57;;;1.27;;
28920;SDS011;16035;53.594;9.952;2024-01-07T06:10:45;3.33;;;1.23;;
28920;SDS011;16035;53.594;9.952;2024-01-07T06:12:45;3.63;;;1.20;;
28920;SDS011;16035;53.594;9.952;2024-01-07T06:14:45;2.83;;;0.97;;
28920;SDS011;16035;53.594;9.952;2024-01-07T06:16:46;6.00;;;1.27;;
28920;SDS011;16035;53.594;9.952;2024-01-07T06:18:46;1.07;;;0.53;;
28920;SDS011;16035;53.594;9.952;2024-01-07T06:20:46;1.97;;;0.93;;
28920;SDS011;16035;53.594;9.952;2024-01-07T06:22:47;1.43;;;0.87;;
28920;SDS011;16035;53.594;9.952;2024-01-07T06:24:47;1.43;;;0.90;;
28920;SDS011;16035;53.594;9.952;2024-01-07T06:26:48;3.00;;;0.70;;
28920;SDS011;16035;53.594;9.952;2024-01-07T06:28:48;2.50;;;0.83;;
28920;SDS011;16035;53.594;9.952;2024-01-07T06:30:48;2.43;;;0.90;;
28920;SDS011;16035;53.594;9.952;2024-01-07T06:32:49;2.40;;;0.80;;
28920;SDS011;16035;53.594;9.952;2024-01-07T06:34:50;2.57;;;1.10;;
28920;SDS011;16035;53.594;9.952;2024-01-07T06:36:50;2.05;;;0.70;;
28920;SDS011;16035;53.594;9.952;2024-01-07T06:38:52;1.73;;;0.82;;
28920;SDS011;16035;53.594;9.952;2024-01-07T06:40:52;1.30;;;0.60;;
28920;SDS011;16035;53.594;9.952;2024-01-07T06:42:55;1.30;;;0.80;;
28920;SDS011;16035;53.594;9.952;2024-01-07T06:44:56;1.75;;;0.95;;
28920;SDS011;16035;53.594;9.952;2024-01-07T06:46:56;2.00;;;0.90;;
28920;SDS011;16035;53.594;9.952;2024-01-07T06:48:57;3.17;;;1.43;;
28920;SDS011;16035;53.594;9.952;2024-01-07T06:50:57;2.83;;;1.00;;
28920;SDS011;16035;53.594;9.952;2024-01-07T06:52:58;2.67;;;1.10;;
28920;SDS011;16035;53.594;9.952;2024-01-07T06:54:58;2.20;;;0.90;;
28920;SDS011;16035;53.594;9.952;2024-01-07T06:56:59;4.53;;;1.13;;
28920;SDS011;16035;53.594;9.952;2024-01-07T06:58:59;2.40;;;1.30;;
28920;SDS011;16035;53.594;9.952;2024-01-07T07:01:00;2.87;;;1.00;;
28920;SDS011;16035;53.594;9.952;2024-01-07T07:03:00;2.73;;;1.40;;
28920;SDS011;16035;53.594;9.952;2024-01-07T07:05:00;4.37;;;1.23;;
28920;SDS011;16035;53.594;9.952;2024-01-07T07:07:01;2.60;;;1.17;;
28920;SDS011;16035;53.594;9.952;2024-01-07T07:09:01;3.07;;;1.47;;
28920;SDS011;16035;53.594;9.952;2024-01-07T07:11:01;4.43;;;1.70;;
28920;SDS011;16035;53.594;9.952;2024-01-07T07:13:02;4.10;;;1.40;;
28920;SDS011;16035;53.594;9.952;2024-01-07T07:15:02;2.70;;;1.90;;
28920;SDS011;16035;53.594;9.952;2024-01-07T07:17:03;5.47;;;2.10;;
28920;SDS011;16035;53.594;9.952;2024-01-07T07:19:03;3.10;;;1.70;;
28920;SDS011;16035;53.594;9.952;2024-01-07T07:21:03;3.63;;;1.80;;
28920;SDS011;16035;53.594;9.952;2024-01-07T07:23:04;5.43;;;2.00;;
28920;SDS011;16035;53.594;9.952;2024-01-07T07:25:04;4.37;;;1.90;;
28920;SDS011;16035;53.594;9.952;2024-01-07T07:27:05;9.10;;;2.58;;
28920;SDS011;16035;53.594;9.952;2024-01-07T07:29:06;4.77;;;1.90;;
28920;SDS011;16035;53.594;9.952;2024-01-07T07:31:10;13.43;;;2.55;;
28920;SDS011;16035;53.594;9.952;2024-01-07T07:33:12;5.13;;;2.00;;
28920;SDS011;16035;53.594;9.952;2024-01-07T07:37:14;3.80;;;1.57;;
28920;SDS011;16035;53.594;9.952;2024-01-07T07:39:14;3.30;;;2.07;;
28920;SDS011;16035;53.594;9.952;2024-01-07T07:41:14;4.07;;;2.10;;
28920;SDS011;16035;53.594;9.952;2024-01-07T07:43:15;5.30;;;2.10;;
28920;SDS011;16035;53.594;9.952;2024-01-07T07:45:15;4.17;;;2.10;;
28920;SDS011;16035;53.594;9.952;2024-01-07T07:47:15;4.43;;;1.47;;
28920;SDS011;16035;53.594;9.952;2024-01-07T07:49:16;5.83;;;2.23;;
28920;SDS011;16035;53.594;9.952;2024-01-07T07:51:16;2.23;;;1.20;;
28920;SDS011;16035;53.594;9.952;2024-01-07T07:53:16;4.40;;;2.30;;
28920;SDS011;16035;53.594;9.952;2024-01-07T07:55:17;5.20;;;2.33;;
28920;SDS011;16035;53.594;9.952;2024-01-07T07:57:17;4.03;;;2.28;;
28920;SDS011;16035;53.594;9.952;2024-01-07T07:59:20;5.93;;;2.10;;
28920;SDS011;16035;53.594;9.952;2024-01-07T08:01:21;4.73;;;2.13;;
28920;SDS011;16035;53.594;9.952;2024-01-07T08:03:21;3.47;;;1.73;;
28920;SDS011;16035;53.594;9.952;2024-01-07T08:05:21;5.77;;;2.17;;
28920;SDS011;16035;53.594;9.952;2024-01-07T08:07:22;4.57;;;2.23;;
28920;SDS011;16035;53.594;9.952;2024-01-07T08:09:22;3.87;;;1.90;;
28920;SDS011;16035;53.594;9.952;2024-01-07T08:11:25;4.07;;;1.77;;
28920;SDS011;16035;53.594;9.952;2024-01-07T08:13:25;8.03;;;1.97;;
28920;SDS011;16035;53.594;9.952;2024-01-07T08:15:25;3.53;;;1.80;;
28920;SDS011;16035;53.594;9.952;2024-01-07T08:17:26;3.37;;;1.77;;
28920;SDS011;16035;53.594;9.952;2024-01-07T08:19:26;2.87;;;1.47;;
28920;SDS011;16035;53.594;9.952;2024-01-07T08:21:26;6.07;;;1.73;;
28920;SDS011;16035;53.594;9.952;2024-01-07T08:23:27;5.23;;;2.23;;
28920;SDS011;16035;53.594;9.952;2024-01-07T08:25:27;3.10;;;1.20;;
28920;SDS011;16035;53.594;9.952;2024-01-07T08:27:28;3.03;;;1.87;;
28920;SDS011;16035;53.594;9.952;2024-01-07T08:29:29;6.47;;;2.25;;
28920;SDS011;16035;53.594;9.952;2024-01-07T08:31:29;5.13;;;2.20;;
28920;SDS011;16035;53.594;9.952;2024-01-07T08:33:30;4.53;;;1.93;;
28920;SDS011;16035;53.594;9.952;2024-01-07T08:35:33;5.70;;;2.33;;
28920;SDS011;16035;53.594;9.952;2024-01-07T08:37:33;6.50;;;2.17;;
28920;SDS011;16035;53.594;9.952;2024-01-07T08:39:33;8.00;;;2.10;;
28920;SDS011;16035;53.594;9.952;2024-01-07T08:41:34;5.97;;;1.90;;
28920;SDS011;16035;53.594;9.952;2024-01-07T08:43:34;7.77;;;1.97;;
28920;SDS011;16035;53.594;9.952;2024-01-07T08:45:34;10.30;;;2.07;;
28920;SDS011;16035;53.594;9.952;2024-01-07T08:47:35;8.63;;;1.90;;
28920;SDS011;16035;53.594;9.952;2024-01-07T08:49:36;4.97;;;2.20;;
28920;SDS011;16035;53.594;9.952;2024-01-07T08:51:38;4.88;;;1.92;;
28920;SDS011;16035;53.594;9.952;2024-01-07T08:53:38;4.67;;;1.43;;
28920;SDS011;16035;53.594;9.952;2024-01-07T08:55:39;8.27;;;2.30;;
28920;SDS011;16035;53.594;9.952;2024-01-07T08:57:39;4.37;;;1.83;;
28920;SDS011;16035;53.594;9.952;2024-01-07T08:59:40;3.03;;;1.50;;
28920;SDS011;16035;53.594;9.952;2024-01-07T09:01:40;3.10;;;1.43;;
28920;SDS011;16035;53.594;9.952;2024-01-07T09:03:40;5.97;;;2.50;;
28920;SDS011;16035;53.594;9.952;2024-01-07T09:05:41;7.50;;;2.00;;
28920;SDS011;16035;53.594;9.952;2024-01-07T09:07:42;5.20;;;1.97;;
28920;SDS011;16035;53.594;9.952;2024-01-07T09:09:42;5.13;;;2.23;;
28920;SDS011;16035;53.594;9.952;2024-01-07T09:11:42;5.70;;;1.87;;
28920;SDS011;16035;53.594;9.952;2024-01-07T09:13:43;6.07;;;2.30;;
28920;SDS011;16035;53.594;9.952;2024-01-07T09:17:44;4.07;;;1.73;;
28920;SDS011;16035;53.594;9.952;2024-01-07T09:19:45;3.87;;;2.07;;
28920;SDS011;16035;53.594;9.952;2024-01-07T09:21:45;5.83;;;1.93;;
28920;SDS011;16035;53.594;9.952;2024-01-07T09:23:46;5.07;;;1.97;;
28920;SDS011;16035;53.594;9.952;2024-01-07T09:25:46;2.77;;;1.80;;
28920;SDS011;16035;53.594;9.952;2024-01-07T09:27:46;7.60;;;1.80;;
28920;SDS011;16035;53.594;9.952;2024-01-07T09:29:47;2.77;;;1.70;;
28920;SDS011;16035;53.594;9.952;2024-01-07T09:31:47;6.97;;;1.77;;
28920;SDS011;16035;53.594;9.952;2024-01-07T09:33:47;4.77;;;1.90;;
28920;SDS011;16035;53.594;9.952;2024-01-07T09:35:53;5.50;;;2.03;;
28920;SDS011;16035;53.594;9.952;2024-01-07T09:37:54;9.83;;;4.77;;
28920;SDS011;16035;53.594;9.952;2024-01-07T09:39:54;3.10;;;2.00;;
28920;SDS011;16035;53.594;9.952;2024-01-07T09:41:55;3.57;;;1.37;;
28920;SDS011;16035;53.594;9.952;2024-01-07T09:43:55;3.57;;;1.93;;
28920;SDS011;16035;53.594;9.952;2024-01-07T09:45:57;3.28;;;1.63;;
28920;SDS011;16035;53.594;9.952;2024-01-07T09:47:58;4.18;;;2.40;;
28920;SDS011;16035;53.594;9.952;2024-01-07T09:49:59;4.93;;;2.03;;
28920;SDS011;16035;53.594;9.952;2024-01-07T09:51:59;2.87;;;1.43;;
28920;SDS011;16035;53.594;9.952;2024-01-07T09:54:03;3.80;;;1.98;;
28920;SDS011;16035;53.594;9.952;2024-01-07T09:58:15;3.05;;;1.85;;
28920;SDS011;16035;53.594;9.952;2024-01-07T10:00:16;7.85;;;2.20;;
28920;SDS011;16035;53.594;9.952;2024-01-07T10:02:16;4.70;;;2.17;;
28920;SDS011;16035;53.594;9.952;2024-01-07T10:04:17;3.27;;;1.50;;
28920;SDS011;16035;53.594;9.952;2024-01-07T10:06:17;3.67;;;2.17;;
28920;SDS011;16035;53.594;9.952;2024-01-07T10:08:19;4.07;;;2.00;;
28920;SDS011;16035;53.594;9.952;2024-01-07T10:10:20;4.80;;;2.00;;
28920;SDS011;16035;53.594;9.952;2024-01-07T10:12:23;4.03;;;2.17;;
28920;SDS011;16035;53.594;9.952;2024-01-07T10:14:24;4.03;;;1.70;;
28920;SDS011;16035;53.594;9.952;2024-01-07T10:16:25;4.03;;;1.50;;
28920;SDS011;16035;53.594;9.952;2024-01-07T10:18:26;2.70;;;1.83;;
28920;SDS011;16035;53.594;9.952;2024-01-07T10:20:26;3.53;;;1.90;;
28920;SDS011;16035;53.594;9.952;2024-01-07T10:22:27;4.30;;;1.60;;
28920;SDS011;16035;53.594;9.952;2024-01-07T10:24:31;11.83;;;4.80;;
28920;SDS011;16035;53.594;9.952;2024-01-07T10:26:37;7.38;;;3.08;;
28920;SDS011;16035;53.594;9.952;2024-01-07T10:28:38;4.50;;;2.28;;
28920;SDS011;16035;53.594;9.952;2024-01-07T10:30:40;10.00;;;2.55;;
28920;SDS011;16035;53.594;9.952;2024-01-07T10:32:41;2.60;;;1.53;;
28920;SDS011;16035;53.594;9.952;2024-01-07T10:34:42;5.63;;;2.33;;
28920;SDS011;16035;53.594;9.952;2024-01-07T10:36:47;2.90;;;2.03;;
28920;SDS011;16035;53.594;9.952;2024-01-07T10:38:47;4.43;;;1.92;;
28920;SDS011;16035;53.594;9.952;2024-01-07T10:40:49;4.33;;;1.57;;
28920;SDS011;16035;53.594;9.952;2024-01-07T10:42:52;5.43;;;1.88;;
28920;SDS011;16035;53.594;9.952;2024-01-07T10:44:52;4.07;;;2.40;;
28920;SDS011;16035;53.594;9.952;2024-01-07T10:46:53;3.27;;;1.80;;
28920;SDS011;16035;53.594;9.952;2024-01-07T10:48:59;3.47;;;1.83;;
28920;SDS011;16035;53.594;9.952;2024-01-07T10:51:00;2.55;;;1.75;;
28920;SDS011;16035;53.594;9.952;2024-01-07T10:53:04;5.13;;;2.47;;
28920;SDS011;16035;53.594;9.952;2024-01-07T10:55:08;3.33;;;1.52;;
28920;SDS011;16035;53.594;9.952;2024-01-07T10:57:13;5.18;;;1.92;;
28920;SDS011;16035;53.594;9.952;2024-01-07T10:59:29;6.63;;;2.67;;
28920;SDS011;16035;53.594;9.952;2024-01-07T11:01:33;3.55;;;1.90;;
28920;SDS011;16035;53.594;9.952;2024-01-07T11:03:44;2.70;;;1.90;;
28920;SDS011;16035;53.594;9.952;2024-01-07T11:06:01;4.28;;;2.00;;
28920;SDS011;16035;53.594;9.952;2024-01-07T11:08:19;4.00;;;2.10;;
28920;SDS011;16035;53.594;9.952;2024-01-07T11:10:55;4.53;;;1.92;;
28920;SDS011;16035;53.594;9.952;2024-01-07T11:12:59;3.50;;;1.73;;
28920;SDS011;16035;53.594;9.952;2024-01-07T11:14:59;4.87;;;1.80;;
28920;SDS011;16035;53.594;9.952;2024-01-07T11:17:00;2.42;;;1.65;;
28920;SDS011;16035;53.594;9.952;2024-01-07T11:19:00;3.33;;;1.90;;
28920;SDS011;16035;53.594;9.952;2024-01-07T11:23:48;3.83;;;1.70;;
28920;SDS011;16035;53.594;9.952;2024-01-07T11:25:31;5.40;;;1.88;;
28920;SDS011;16035;53.594;9.952;2024-01-07T11:27:32;4.43;;;2.25;;
28920;SDS011;16035;53.594;9.952;2024-01-07T11:29:33;5.38;;;1.90;;
28920;SDS011;16035;53.594;9.952;2024-01-07T11:33:39;3.17;;;1.63;;
28920;SDS011;16035;53.594;9.952;2024-01-07T11:38:01;4.53;;;2.00;;
28920;SDS011;16035;53.594;9.952;2024-01-07T11:40:03;2.78;;;1.30;;
28920;SDS011;16035;53.594;9.952;2024-01-07T11:42:04;6.82;;;2.03;;
28920;SDS011;16035;53.594;9.952;2024-01-07T11:44:05;4.15;;;1.90;;
28920;SDS011;16035;53.594;9.952;2024-01-07T11:46:05;4.03;;;1.50;;
28920;SDS011;16035;53.594;9.952;2024-01-07T11:48:06;8.23;;;1.90;;
28920;SDS011;16035;53.594;9.952;2024-01-07T11:50:06;2.50;;;1.60;;
28920;SDS011;16035;53.594;9.952;2024-01-07T11:52:08;3.33;;;1.90;;
28920;SDS011;16035;53.594;9.952;2024-01-07T11:54:10;5.65;;;1.92;;
28920;SDS011;16035;53.594;9.952;2024-01-07T11:56:11;3.37;;;1.80;;
28920;SDS011;16035;53.594;9.952;2024-01-07T11:58:12;8.23;;;2.30;;
28920;SDS011;16035;53.594;9.952;2024-01-07T12:00:13;2.20;;;1.40;;
28920;SDS011;16035;53.594;9.952;2024-01-07T12:02:14;4.78;;;1.33;;
28920;SDS011;16035;53.594;9.952;2024-01-07T12:04:17;9.30;;;2.25;;
28920;SDS011;16035;53.594;9.952;2024-01-07T12:06:18;3.77;;;1.50;;
28920;SDS011;16035;53.594;9.952;2024-01-07T12:08:25;4.07;;;2.10;;
28920;SDS011;16035;53.594;9.952;2024-01-07T12:10:25;3.63;;;1.73;;
28920;SDS011;16035;53.594;9.952;2024-01-07T12:12:26;4.20;;;1.50;;
28920;SDS011;16035;53.594;9.952;2024-01-07T12:14:27;5.13;;;1.85;;
28920;SDS011;16035;53.594;9.952;2024-01-07T12:16:32;5.30;;;2.15;;
28920;SDS011;16035;53.594;9.952;2024-01-07T12:18:33;3.90;;;1.77;;
28920;SDS011;16035;53.594;9.952;2024-01-07T12:20:36;5.97;;;1.83;;
28920;SDS011;16035;53.594;9.952;2024-01-07T12:22:37;4.15;;;1.95;;